Time;durP1;ratioP1;P1;durP2;ratioP2;P2;SDS_P1;SDS_P2;PMS_P1;PMS_P2;Temp;Humidity;BMP_temperature;BMP_pressure;BME280_temperature;BME280_humidity;BME280_pressure;Samples;Min_cycle;Max_cycle;Signal;HPM_P1;HPM_P2
2023/07/27 00:02:04;;;;;;;2.90;1.10;;;19.90;99.90;;;;;;5014261;28;20683;-80
2023/07/27 00:04:30;;;;;;;2.00;1.13;;;19.90;99.90;;;;;;5014306;28;20189;-80
2023/07/27 00:06:56;;;;;;;2.00;1.27;;;19.90;99.90;;;;;;4998364;28;20656;-80
2023/07/27 00:09:22;;;;;;;3.13;1.10;;;19.90;99.90;;;;;;5032491;28;20185;-80
2023/07/27 00:11:48;;;;;;;3.37;1.73;;;19.90;99.90;;;;;;5014473;28;20181;-79
2023/07/27 00:14:14;;;;;;;2.50;1.50;;;19.90;99.90;;;;;;5014625;28;20170;-79
2023/07/27 00:16:40;;;;;;;2.10;0.93;;;19.80;99.90;;;;;;5031907;28;20589;-80
2023/07/27 00:19:06;;;;;;;2.07;1.23;;;19.90;99.90;;;;;;5031727;28;20201;-79
2023/07/27 00:21:31;;;;;;;2.63;1.33;;;19.80;99.90;;;;;;5013520;28;20181;-80
2023/07/27 00:23:57;;;;;;;2.50;1.07;;;19.80;99.90;;;;;;5014277;28;20240;-79
2023/07/27 00:26:23;;;;;;;2.47;1.17;;;19.80;99.90;;;;;;5013872;28;20178;-79
2023/07/27 00:28:48;;;;;;;4.47;1.20;;;19.80;99.90;;;;;;5013814;28;20225;-80
2023/07/27 00:31:14;;;;;;;2.13;1.10;;;19.80;99.90;;;;;;5031506;28;20169;-79
2023/07/27 00:33:41;;;;;;;5.00;1.30;;;19.80;99.90;;;;;;5014263;28;20188;-80
2023/07/27 00:36:07;;;;;;;1.90;1.10;;;19.80;99.90;;;;;;5014060;28;20584;-79
2023/07/27 00:38:33;;;;;;;3.30;1.20;;;19.70;99.90;;;;;;5013229;28;20181;-79
2023/07/27 00:40:58;;;;;;;2.47;1.23;;;19.70;99.90;;;;;;5014113;28;20174;-80
2023/07/27 00:43:24;;;;;;;2.87;1.00;;;19.70;99.90;;;;;;5031191;28;20201;-79
2023/07/27 00:45:50;;;;;;;2.57;1.20;;;19.70;99.90;;;;;;5031762;28;20209;-79
2023/07/27 00:48:17;;;;;;;3.83;1.77;;;19.60;99.90;;;;;;5013071;28;20209;-79
2023/07/27 00:50:43;;;;;;;3.03;1.20;;;19.60;99.90;;;;;;5013595;28;20671;-79
2023/07/27 00:53:09;;;;;;;2.87;1.20;;;19.60;99.90;;;;;;5012724;28;20883;-79
2023/07/27 00:55:36;;;;;;;2.90;1.43;;;19.60;99.90;;;;;;5013576;28;20624;-79
2023/07/27 00:58:02;;;;;;;2.60;1.20;;;19.60;99.90;;;;;;5030531;28;20611;-79
2023/07/27 01:00:29;;;;;;;2.90;1.30;;;19.60;99.90;;;;;;5013336;28;20616;-79
2023/07/27 01:02:56;;;;;;;2.83;1.40;;;19.60;99.90;;;;;;5012611;28;20599;-79
2023/07/27 01:05:22;;;;;;;3.00;1.27;;;19.60;99.90;;;;;;5013453;28;20596;-79
2023/07/27 01:07:48;;;;;;;2.50;1.40;;;19.60;99.90;;;;;;5013144;28;21251;-80
2023/07/27 01:10:14;;;;;;;3.47;1.27;;;19.60;99.90;;;;;;5012830;28;20802;-79
2023/07/27 01:12:52;;;;;;;2.77;1.10;;;19.60;99.90;;;;;;5013306;28;20264;-80
2023/07/27 01:15:22;;;;;;;2.30;1.13;;;19.50;99.90;;;;;;5019958;28;20630;-80
2023/07/27 01:18:07;;;;;;;3.53;1.87;;;19.50;99.90;;;;;;5035029;28;21066;-80
2023/07/27 01:20:46;;;;;;;3.10;1.37;;;19.40;99.90;;;;;;5032768;28;21002;-80
2023/07/27 01:23:15;;;;;;;3.67;1.40;;;19.50;99.90;;;;;;5049439;28;20701;-80
2023/07/27 01:26:14;;;;;;;2.90;1.37;;;19.40;99.90;;;;;;5032634;28;20591;-80
2023/07/27 01:29:11;;;;;;;3.10;1.20;;;19.40;99.90;;;;;;5032207;28;20685;-80
2023/07/27 01:31:42;;;;;;;2.40;1.43;;;19.40;99.90;;;;;;5032647;28;20576;-80
2023/07/27 01:34:31;;;;;;;5.40;1.50;;;19.40;99.90;;;;;;5032955;28;20918;-80
2023/07/27 01:37:01;;;;;;;2.90;1.13;;;19.40;99.90;;;;;;5050786;28;20564;-80
2023/07/27 01:39:28;;;;;;;2.70;1.40;;;19.40;99.90;;;;;;5032531;28;20623;-80
2023/07/27 01:41:55;;;;;;;3.33;1.30;;;19.50;99.90;;;;;;5050339;28;20568;-79
2023/07/27 01:44:27;;;;;;;2.43;1.20;;;19.40;99.90;;;;;;5032809;28;20908;-80
2023/07/27 01:46:53;;;;;;;3.00;1.10;;;19.40;99.90;;;;;;5032411;28;20632;-79
2023/07/27 01:49:21;;;;;;;2.80;1.40;;;19.50;99.90;;;;;;5015906;28;21005;-80
2023/07/27 01:51:48;;;;;;;2.10;1.00;;;19.50;99.90;;;;;;5032402;28;20570;-80
2023/07/27 01:54:15;;;;;;;2.97;1.07;;;19.50;99.90;;;;;;5051123;28;20948;-80
2023/07/27 01:56:44;;;;;;;5.30;1.30;;;19.50;99.90;;;;;;5050818;28;20579;-80
2023/07/27 01:59:10;;;;;;;3.17;1.30;;;19.50;99.90;;;;;;5032544;28;20599;-80
2023/07/27 02:01:42;;;;;;;2.73;1.20;;;19.50;99.90;;;;;;5032796;28;20576;-80
2023/07/27 02:04:09;;;;;;;3.77;1.20;;;19.50;99.90;;;;;;5031984;28;20633;-80
2023/07/27 02:06:36;;;;;;;2.93;1.50;;;19.50;99.90;;;;;;5031508;28;20588;-80
2023/07/27 02:09:03;;;;;;;2.83;1.20;;;19.50;99.90;;;;;;5031597;28;20630;-80
2023/07/27 02:11:29;;;;;;;2.80;1.40;;;19.60;99.90;;;;;;5031857;28;20234;-80
2023/07/27 02:14:01;;;;;;;3.03;1.40;;;19.50;99.90;;;;;;5032668;28;21463;-80
2023/07/27 02:16:36;;;;;;;2.40;1.27;;;19.60;99.90;;;;;;5032092;28;20261;-80
2023/07/27 02:19:03;;;;;;;2.57;1.13;;;19.60;99.90;;;;;;5032281;28;20609;-80
2023/07/27 02:21:31;;;;;;;3.00;1.40;;;19.60;99.90;;;;;;5032406;28;20939;-80
2023/07/27 02:23:58;;;;;;;2.27;1.10;;;19.60;99.90;;;;;;5032710;28;20752;-79
2023/07/27 02:26:25;;;;;;;2.20;1.33;;;19.60;99.90;;;;;;5032771;28;20587;-80
2023/07/27 02:28:51;;;;;;;2.03;1.30;;;19.60;99.90;;;;;;5029671;28;20615;-79
2023/07/27 02:31:17;;;;;;;1.70;0.90;;;19.60;99.90;;;;;;4995520;28;20599;-80
2023/07/27 02:33:43;;;;;;;4.37;1.60;;;19.70;99.90;;;;;;5001244;28;20593;-80
2023/07/27 02:36:09;;;;;;;2.67;1.33;;;19.70;99.90;;;;;;4960605;28;20178;-80
2023/07/27 02:38:36;;;;;;;2.10;1.33;;;19.70;99.90;;;;;;4992087;28;20930;-79
2023/07/27 02:41:02;;;;;;;2.60;1.53;;;19.70;99.90;;;;;;4960501;28;20957;-80
2023/07/27 02:43:28;;;;;;;2.97;1.30;;;19.70;99.90;;;;;;4992348;28;20586;-79
2023/07/27 02:46:00;;;;;;;2.73;1.30;;;19.70;99.90;;;;;;4992783;28;20178;-79
2023/07/27 02:48:28;;;;;;;2.00;1.00;;;19.60;99.90;;;;;;4975727;28;20206;-79
2023/07/27 02:50:53;;;;;;;2.37;1.50;;;19.60;99.90;;;;;;4992504;28;20699;-78
2023/07/27 02:53:20;;;;;;;2.40;1.30;;;19.60;99.90;;;;;;4992153;28;20240;-79
2023/07/27 02:55:57;;;;;;;2.43;1.13;;;19.50;99.90;;;;;;4992563;28;20589;-80
2023/07/27 02:58:23;;;;;;;3.67;1.47;;;19.40;99.90;;;;;;4992347;28;20643;-81
2023/07/27 03:00:54;;;;;;;2.33;1.10;;;19.40;99.90;;;;;;4992294;28;20601;-80
2023/07/27 03:03:20;;;;;;;3.53;1.20;;;19.30;99.90;;;;;;4992204;28;20648;-80
2023/07/27 03:05:47;;;;;;;3.10;1.40;;;19.20;99.90;;;;;;4992109;28;21214;-80
2023/07/27 03:08:16;;;;;;;2.40;1.80;;;19.00;99.90;;;;;;4991990;28;20637;-80
2023/07/27 03:10:42;;;;;;;2.53;1.43;;;18.90;99.90;;;;;;4976101;28;20606;-80
2023/07/27 03:13:07;;;;;;;2.07;1.20;;;18.80;99.90;;;;;;4992421;28;20585;-80
2023/07/27 03:15:38;;;;;;;5.60;1.90;;;18.70;99.90;;;;;;4992367;28;20175;-80
2023/07/27 03:18:03;;;;;;;2.63;1.37;;;18.60;99.90;;;;;;4995745;28;20183;-80
2023/07/27 03:20:29;;;;;;;2.87;1.30;;;18.60;99.90;;;;;;4995560;28;20671;-80
2023/07/27 03:22:59;;;;;;;2.20;1.53;;;18.40;99.90;;;;;;4995486;28;20658;-80
2023/07/27 03:25:25;;;;;;;3.30;1.90;;;18.30;99.90;;;;;;4996026;28;20186;-80
2023/07/27 03:27:50;;;;;;;2.13;1.40;;;18.30;99.90;;;;;;5013398;28;20627;-80
2023/07/27 03:30:16;;;;;;;3.13;2.00;;;18.20;99.90;;;;;;4995237;28;20198;-79
2023/07/27 03:32:44;;;;;;;3.20;1.87;;;18.10;99.90;;;;;;4995605;28;20202;-79
2023/07/27 03:35:11;;;;;;;4.20;1.60;;;18.00;99.90;;;;;;5013390;28;20570;-80
2023/07/27 03:37:36;;;;;;;3.30;1.63;;;17.90;99.90;;;;;;5013234;28;20171;-80
2023/07/27 03:40:02;;;;;;;3.00;2.03;;;17.80;99.90;;;;;;4995694;28;20624;-80
2023/07/27 03:42:28;;;;;;;2.20;1.67;;;17.80;99.90;;;;;;4995091;28;20202;-80
2023/07/27 03:44:54;;;;;;;2.67;1.57;;;17.70;99.90;;;;;;4996682;28;20950;-79
2023/07/27 03:47:20;;;;;;;6.43;1.80;;;17.60;99.90;;;;;;4996366;28;20678;-79
2023/07/27 03:49:45;;;;;;;3.30;1.73;;;17.60;99.90;;;;;;5002783;28;21021;-79
2023/07/27 03:52:11;;;;;;;4.37;1.90;;;17.50;99.90;;;;;;5014935;28;20174;-79
2023/07/27 03:54:37;;;;;;;5.40;1.67;;;17.50;99.90;;;;;;5014771;28;20215;-79
2023/07/27 03:57:03;;;;;;;4.37;2.20;;;17.40;99.90;;;;;;5013851;28;20178;-79
2023/07/27 03:59:28;;;;;;;5.60;2.00;;;17.30;99.90;;;;;;4997132;28;20658;-79
2023/07/27 04:01:54;;;;;;;3.43;2.10;;;17.20;99.90;;;;;;4994431;28;20622;-79
2023/07/27 04:04:20;;;;;;;3.53;1.70;;;17.10;99.90;;;;;;4994809;28;20253;-79
2023/07/27 04:06:46;;;;;;;4.80;2.20;;;17.00;99.90;;;;;;4978578;28;20174;-78
2023/07/27 04:09:12;;;;;;;2.63;1.40;;;16.90;99.90;;;;;;4994302;28;20655;-79
2023/07/27 04:11:38;;;;;;;3.70;1.70;;;16.90;99.90;;;;;;4994923;28;20209;-79
2023/07/27 04:14:03;;;;;;;3.27;1.70;;;16.80;99.90;;;;;;4994824;28;21022;-79
2023/07/27 04:16:29;;;;;;;4.30;1.80;;;16.80;99.90;;;;;;5012523;28;20181;-78
2023/07/27 04:18:55;;;;;;;4.40;2.40;;;16.70;99.90;;;;;;4994110;28;20195;-79
2023/07/27 04:21:20;;;;;;;3.60;2.27;;;16.70;99.90;;;;;;4994582;28;20298;-78
2023/07/27 04:23:46;;;;;;;3.87;2.10;;;16.70;99.90;;;;;;4994561;28;20184;-80
2023/07/27 04:26:12;;;;;;;4.27;1.97;;;16.70;99.90;;;;;;4994978;28;20202;-79
2023/07/27 04:28:37;;;;;;;2.87;1.97;;;16.60;99.90;;;;;;4993243;28;20640;-79
2023/07/27 04:31:03;;;;;;;3.97;1.97;;;16.60;99.90;;;;;;4994498;28;20185;-79
2023/07/27 04:33:29;;;;;;;4.80;1.80;;;16.60;99.90;;;;;;4994240;28;20185;-79
2023/07/27 04:35:59;;;;;;;5.13;2.30;;;16.60;99.90;;;;;;4994788;28;20646;-79
2023/07/27 04:38:24;;;;;;;3.70;2.20;;;16.60;99.90;;;;;;4994731;28;20190;-79
2023/07/27 04:40:51;;;;;;;2.40;2.10;;;16.60;99.90;;;;;;4994577;28;20635;-78
2023/07/27 04:43:17;;;;;;;3.40;1.60;;;16.60;99.90;;;;;;4994411;28;20185;-79
2023/07/27 04:45:43;;;;;;;3.00;2.13;;;16.60;99.90;;;;;;4994329;28;20667;-79
2023/07/27 04:48:09;;;;;;;6.40;2.40;;;16.60;99.90;;;;;;4994625;28;21036;-79
2023/07/27 04:50:42;;;;;;;5.07;2.90;;;16.60;99.90;;;;;;4997577;28;20625;-79
2023/07/27 04:53:16;;;;;;;3.73;2.50;;;16.60;99.90;;;;;;4999003;28;20177;-79
2023/07/27 04:55:46;;;;;;;3.40;2.60;;;16.60;99.90;;;;;;4995040;28;20585;-79
2023/07/27 04:58:21;;;;;;;3.33;2.40;;;16.50;99.90;;;;;;4994862;28;20595;-80
2023/07/27 05:00:55;;;;;;;5.17;2.60;;;16.50;99.90;;;;;;4995365;28;20637;-78
2023/07/27 05:03:24;;;;;;;6.27;3.30;;;16.50;99.90;;;;;;4995581;28;20569;-80
2023/07/27 05:05:52;;;;;;;5.10;2.50;;;16.40;99.90;;;;;;5011922;28;20565;-79
2023/07/27 05:08:18;;;;;;;4.53;2.53;;;16.40;99.90;;;;;;5014542;28;20620;-80
2023/07/27 05:10:44;;;;;;;4.73;2.20;;;16.30;99.90;;;;;;4993694;28;20609;-79
2023/07/27 05:13:09;;;;;;;6.37;2.87;;;16.30;99.90;;;;;;4993856;28;20539;-79
2023/07/27 05:15:39;;;;;;;4.30;2.77;;;16.30;99.90;;;;;;4993178;28;20174;-78
2023/07/27 05:18:05;;;;;;;4.90;2.40;;;16.20;99.90;;;;;;4993145;28;20261;-78
2023/07/27 05:20:33;;;;;;;3.13;2.40;;;16.10;99.90;;;;;;4993192;28;20721;-80
2023/07/27 05:22:59;;;;;;;4.30;2.80;;;16.10;99.90;;;;;;5010658;28;20178;-80
2023/07/27 05:25:24;;;;;;;4.43;2.87;;;16.10;99.90;;;;;;5011292;28;21104;-80
2023/07/27 05:27:50;;;;;;;4.13;3.20;;;16.10;99.90;;;;;;4993041;28;20237;-80
2023/07/27 05:30:16;;;;;;;3.50;2.23;;;16.10;99.90;;;;;;5015335;28;20205;-79
2023/07/27 05:32:41;;;;;;;4.97;2.83;;;16.10;99.90;;;;;;4992804;28;20259;-80
2023/07/27 05:35:07;;;;;;;5.33;2.50;;;16.10;99.90;;;;;;4993521;28;20220;-80
2023/07/27 05:37:33;;;;;;;3.50;2.70;;;16.10;99.90;;;;;;4992996;28;20555;-80
2023/07/27 05:39:59;;;;;;;6.67;2.80;;;16.10;99.90;;;;;;5009474;28;20605;-79
2023/07/27 05:42:24;;;;;;;3.50;2.10;;;16.10;99.90;;;;;;4992679;28;20178;-79
2023/07/27 05:44:50;;;;;;;4.40;2.83;;;16.10;99.90;;;;;;5010900;28;20174;-79
2023/07/27 05:47:17;;;;;;;5.00;3.50;;;16.10;99.90;;;;;;4976692;28;20312;-79
2023/07/27 05:49:42;;;;;;;5.83;2.93;;;16.20;99.90;;;;;;5010115;28;20659;-79
2023/07/27 05:52:08;;;;;;;3.77;2.30;;;16.20;99.90;;;;;;4992699;28;20601;-79
2023/07/27 05:54:34;;;;;;;4.27;2.93;;;16.20;99.90;;;;;;4992961;28;20220;-79
2023/07/27 05:57:00;;;;;;;3.70;2.90;;;16.10;99.90;;;;;;4993417;28;20178;-79
2023/07/27 05:59:26;;;;;;;3.50;2.70;;;16.10;99.90;;;;;;5010026;28;21149;-79
2023/07/27 06:01:52;;;;;;;4.97;3.10;;;16.20;99.90;;;;;;4992947;28;20584;-79
2023/07/27 06:04:19;;;;;;;7.93;3.73;;;16.20;99.90;;;;;;4992880;28;20178;-79
2023/07/27 06:06:45;;;;;;;6.23;2.87;;;16.20;99.90;;;;;;5015363;28;20213;-79
2023/07/27 06:09:12;;;;;;;4.20;2.60;;;16.20;99.90;;;;;;4992599;28;20605;-79
2023/07/27 06:11:37;;;;;;;4.33;2.57;;;16.10;99.90;;;;;;4992758;28;20573;-79
2023/07/27 06:14:03;;;;;;;7.13;4.17;;;16.20;99.90;;;;;;4992651;28;20609;-79
2023/07/27 06:16:29;;;;;;;5.27;2.40;;;16.10;99.90;;;;;;5010401;28;20175;-79
2023/07/27 06:18:55;;;;;;;3.43;2.63;;;16.20;99.90;;;;;;4991992;28;20685;-79
2023/07/27 06:21:20;;;;;;;3.73;2.97;;;16.20;99.90;;;;;;4992666;28;20240;-79
2023/07/27 06:23:46;;;;;;;6.70;3.30;;;16.20;99.90;;;;;;4992869;28;20179;-79
2023/07/27 06:26:12;;;;;;;3.57;2.70;;;16.20;99.90;;;;;;4993145;28;20686;-79
2023/07/27 06:28:37;;;;;;;6.17;4.37;;;16.20;99.90;;;;;;5010285;28;20204;-79
2023/07/27 06:31:03;;;;;;;4.50;3.60;;;16.20;99.90;;;;;;5006770;28;20174;-79
2023/07/27 06:33:29;;;;;;;4.60;3.50;;;16.30;99.90;;;;;;5008940;28;20182;-79
2023/07/27 06:35:54;;;;;;;3.87;2.73;;;16.30;99.90;;;;;;5029088;28;20170;-80
2023/07/27 06:38:20;;;;;;;7.37;3.33;;;16.30;99.90;;;;;;5021641;28;20645;-80
2023/07/27 06:40:46;;;;;;;4.27;3.03;;;16.40;99.90;;;;;;5011776;28;20198;-80
2023/07/27 06:43:12;;;;;;;3.80;2.87;;;16.40;99.90;;;;;;4999615;28;20192;-79
2023/07/27 06:45:38;;;;;;;4.27;2.80;;;16.40;99.90;;;;;;5010141;28;20185;-80
2023/07/27 06:48:04;;;;;;;3.90;2.97;;;16.50;99.90;;;;;;5025240;28;20994;-80
2023/07/27 06:50:30;;;;;;;3.27;2.97;;;16.50;99.90;;;;;;5003329;28;20647;-79
2023/07/27 06:52:56;;;;;;;7.33;3.27;;;16.50;99.90;;;;;;5020891;28;20590;-79
2023/07/27 06:55:22;;;;;;;3.10;2.27;;;16.60;99.90;;;;;;5026329;28;21156;-79
2023/07/27 06:57:47;;;;;;;4.00;2.80;;;16.60;99.90;;;;;;5007751;28;20182;-79
2023/07/27 07:00:13;;;;;;;4.00;2.90;;;16.70;99.90;;;;;;5033996;28;20198;-79
2023/07/27 07:02:39;;;;;;;4.17;2.33;;;16.80;99.90;;;;;;5033470;28;20209;-79
2023/07/27 07:05:05;;;;;;;2.93;2.20;;;16.80;99.90;;;;;;5016433;28;20619;-80
2023/07/27 07:07:31;;;;;;;4.00;1.83;;;16.90;99.90;;;;;;5015818;28;20205;-80
2023/07/27 07:09:57;;;;;;;3.77;2.20;;;16.90;99.90;;;;;;5015852;28;20666;-78
2023/07/27 07:12:22;;;;;;;3.60;2.23;;;16.90;99.90;;;;;;5033297;28;20172;-79
2023/07/27 07:14:48;;;;;;;5.10;2.30;;;17.00;99.90;;;;;;5033607;28;20630;-79
2023/07/27 07:17:14;;;;;;;3.50;3.20;;;17.00;99.90;;;;;;5015609;28;20188;-79
2023/07/27 07:19:39;;;;;;;3.90;2.17;;;17.00;99.90;;;;;;5020079;28;20198;-79
2023/07/27 07:22:05;;;;;;;3.10;1.83;;;17.10;99.90;;;;;;5033992;28;20551;-79
2023/07/27 07:24:31;;;;;;;2.30;1.83;;;17.10;99.90;;;;;;5015806;28;20181;-78
2023/07/27 07:26:58;;;;;;;3.53;2.50;;;17.20;99.90;;;;;;5015603;28;20722;-80
2023/07/27 07:29:23;;;;;;;2.53;1.77;;;17.20;99.90;;;;;;5032636;28;20675;-79
2023/07/27 07:31:49;;;;;;;3.60;2.50;;;17.30;99.90;;;;;;5014956;28;20193;-79
2023/07/27 07:34:15;;;;;;;3.27;1.80;;;17.30;99.90;;;;;;5014964;28;20177;-79
2023/07/27 07:36:40;;;;;;;3.30;2.13;;;17.40;99.90;;;;;;5015511;28;20560;-79
2023/07/27 07:39:06;;;;;;;3.30;2.10;;;17.40;99.90;;;;;;5032269;28;20190;-79
2023/07/27 07:41:34;;;;;;;3.10;2.00;;;17.40;99.90;;;;;;5032533;28;20169;-79
2023/07/27 07:44:00;;;;;;;3.10;1.83;;;17.50;99.90;;;;;;5014869;28;20174;-79
2023/07/27 07:46:25;;;;;;;4.27;1.90;;;17.50;99.90;;;;;;5040491;28;20568;-77
2023/07/27 07:48:51;;;;;;;1.83;1.63;;;17.60;99.90;;;;;;5037467;28;20285;-77
2023/07/27 07:51:18;;;;;;;2.00;1.20;;;17.60;99.90;;;;;;5038241;28;20170;-77
2023/07/27 07:53:43;;;;;;;2.67;1.53;;;17.70;99.90;;;;;;5055075;28;20162;-78
2023/07/27 07:56:14;;;;;;;2.93;1.20;;;17.70;99.90;;;;;;5055841;28;20630;-76
2023/07/27 07:58:40;;;;;;;2.30;1.27;;;17.70;99.90;;;;;;5053245;28;20162;-77
2023/07/27 08:01:06;;;;;;;2.80;1.63;;;17.70;99.90;;;;;;5052801;28;20663;-77
2023/07/27 08:03:32;;;;;;;3.40;1.27;;;17.70;99.90;;;;;;5034374;28;20178;-77
2023/07/27 08:05:58;;;;;;;2.60;1.30;;;17.70;99.90;;;;;;5053144;28;20630;-77
2023/07/27 08:08:24;;;;;;;2.20;1.30;;;17.70;99.90;;;;;;5019599;28;20627;-77
2023/07/27 08:10:50;;;;;;;2.97;1.77;;;17.70;99.90;;;;;;5035812;28;20595;-77
2023/07/27 08:13:16;;;;;;;3.07;1.40;;;17.70;99.90;;;;;;5035307;28;20636;-77
2023/07/27 08:15:52;;;;;;;3.00;1.30;;;17.80;99.90;;;;;;5053800;28;20567;-78
2023/07/27 08:18:18;;;;;;;1.57;0.97;;;17.80;99.90;;;;;;5034703;28;20268;-78
2023/07/27 08:20:44;;;;;;;2.80;1.53;;;17.80;99.90;;;;;;5052461;28;20611;-78
2023/07/27 08:23:09;;;;;;;1.83;1.47;;;17.80;99.90;;;;;;5042679;28;20178;-76
2023/07/27 08:25:42;;;;;;;2.10;1.50;;;17.80;99.90;;;;;;5011893;28;20189;-79
2023/07/27 08:28:07;;;;;;;2.77;1.73;;;17.90;99.90;;;;;;5017795;28;20209;-78
2023/07/27 08:30:33;;;;;;;2.57;1.30;;;17.90;99.90;;;;;;5034545;28;20604;-78
2023/07/27 08:32:59;;;;;;;2.20;1.40;;;17.90;99.90;;;;;;5047090;28;20158;-78
2023/07/27 08:35:24;;;;;;;2.57;1.27;;;17.90;99.90;;;;;;5038693;28;20229;-78
2023/07/27 08:37:50;;;;;;;2.87;1.30;;;17.90;99.90;;;;;;5018930;28;20192;-79
2023/07/27 08:40:16;;;;;;;2.33;1.40;;;17.90;99.90;;;;;;5033112;28;20241;-79
2023/07/27 08:42:43;;;;;;;2.23;1.50;;;17.90;99.90;;;;;;5033856;28;20182;-79
2023/07/27 08:45:13;;;;;;;1.83;1.30;;;18.00;99.90;;;;;;5017014;28;20607;-79
2023/07/27 08:47:39;;;;;;;1.70;1.20;;;18.00;99.90;;;;;;5035932;28;20695;-79
2023/07/27 08:50:06;;;;;;;2.10;1.53;;;18.00;99.90;;;;;;5031812;28;20750;-79
2023/07/27 08:52:32;;;;;;;2.17;1.57;;;18.00;99.90;;;;;;5031484;28;20596;-78
2023/07/27 08:54:58;;;;;;;2.40;1.63;;;18.10;99.90;;;;;;5014280;28;21271;-78
2023/07/27 08:57:24;;;;;;;3.10;1.57;;;18.10;99.90;;;;;;5013951;28;20516;-78
2023/07/27 08:59:51;;;;;;;2.13;1.50;;;18.10;99.90;;;;;;5014082;28;20613;-78
2023/07/27 09:02:16;;;;;;;2.80;1.73;;;18.10;99.90;;;;;;5031569;28;20260;-78
2023/07/27 09:04:42;;;;;;;4.33;1.83;;;18.10;99.90;;;;;;5014443;28;20715;-78
2023/07/27 09:07:08;;;;;;;2.37;1.60;;;18.10;99.90;;;;;;5031758;28;20205;-77
2023/07/27 09:09:34;;;;;;;3.07;1.43;;;18.10;99.90;;;;;;5032124;28;20189;-77
2023/07/27 09:12:03;;;;;;;2.00;1.80;;;18.10;99.90;;;;;;5022775;28;20169;-78
2023/07/27 09:14:35;;;;;;;3.17;1.87;;;18.10;99.90;;;;;;5031539;28;20571;-78
2023/07/27 09:17:01;;;;;;;4.63;1.77;;;18.10;99.90;;;;;;5019612;28;21162;-78
2023/07/27 09:19:32;;;;;;;2.90;1.90;;;18.20;99.90;;;;;;5024888;28;20604;-78
2023/07/27 09:21:58;;;;;;;2.60;1.67;;;18.20;99.90;;;;;;5041072;28;20916;-78
2023/07/27 09:24:23;;;;;;;2.77;1.30;;;18.10;99.90;;;;;;5021656;28;20576;-78
2023/07/27 09:26:52;;;;;;;2.50;1.73;;;18.10;99.90;;;;;;5020727;28;20603;-78
2023/07/27 09:29:19;;;;;;;3.60;1.87;;;18.10;99.90;;;;;;5020065;28;20190;-78
2023/07/27 09:31:49;;;;;;;3.50;2.13;;;18.10;99.90;;;;;;5014796;28;20659;-78
2023/07/27 09:34:16;;;;;;;3.80;2.03;;;18.20;99.90;;;;;;5017212;28;20591;-78
2023/07/27 09:36:42;;;;;;;3.40;2.20;;;18.20;99.90;;;;;;5036138;28;20581;-78
2023/07/27 09:39:08;;;;;;;2.57;1.83;;;18.20;99.90;;;;;;5015304;28;21226;-78
2023/07/27 09:41:34;;;;;;;1.97;1.70;;;18.20;99.90;;;;;;5016359;28;20576;-78
2023/07/27 09:44:02;;;;;;;3.17;2.00;;;18.30;99.90;;;;;;5002264;28;20573;-79
2023/07/27 09:46:29;;;;;;;3.57;2.27;;;18.30;99.90;;;;;;5017811;28;20591;-79
2023/07/27 09:48:56;;;;;;;3.40;2.83;;;18.30;99.90;;;;;;5042369;28;20738;-79
2023/07/27 09:51:24;;;;;;;3.10;2.03;;;18.30;99.90;;;;;;5036472;28;20588;-79
2023/07/27 09:53:51;;;;;;;2.67;2.13;;;18.40;99.90;;;;;;5030980;28;20675;-79
2023/07/27 09:56:18;;;;;;;2.77;1.93;;;18.40;99.90;;;;;;5032003;28;20580;-79
2023/07/27 09:58:46;;;;;;;2.90;1.97;;;18.40;99.90;;;;;;5014342;28;20569;-78
2023/07/27 10:01:12;;;;;;;4.20;2.27;;;18.40;99.90;;;;;;5030675;28;20619;-79
2023/07/27 10:03:38;;;;;;;2.97;2.00;;;18.50;99.90;;;;;;5013413;28;21054;-79
2023/07/27 10:06:05;;;;;;;2.83;2.00;;;18.60;99.90;;;;;;5013423;28;20185;-78
2023/07/27 10:08:33;;;;;;;2.97;1.70;;;18.60;99.90;;;;;;5030373;28;20659;-79
2023/07/27 10:11:00;;;;;;;2.80;1.97;;;18.60;99.90;;;;;;5012713;28;20585;-80
2023/07/27 10:13:26;;;;;;;2.13;1.80;;;18.70;99.90;;;;;;5013700;28;20599;-80
2023/07/27 10:15:54;;;;;;;2.90;1.73;;;18.80;99.90;;;;;;5014516;28;20591;-81
2023/07/27 10:18:24;;;;;;;2.57;2.10;;;18.80;99.90;;;;;;5015066;28;20180;-80
2023/07/27 10:20:51;;;;;;;3.80;1.83;;;18.90;99.90;;;;;;5016859;28;20716;-79
2023/07/27 10:23:20;;;;;;;3.27;2.10;;;18.90;99.90;;;;;;5035015;28;20583;-79
2023/07/27 10:26:03;;;;;;;5.90;3.73;;;19.00;99.90;;;;;;5041909;28;20870;-80
2023/07/27 10:28:48;;;;;;;2.93;1.73;;;19.10;99.90;;;;;;5021234;28;20636;-80
2023/07/27 10:31:15;;;;;;;3.10;2.10;;;19.20;99.90;;;;;;5037919;28;20583;-80
2023/07/27 10:34:01;;;;;;;3.73;2.37;;;19.20;99.90;;;;;;5017910;28;20671;-79
2023/07/27 10:36:57;;;;;;;2.60;1.63;;;19.20;99.90;;;;;;5016491;28;20588;-79
2023/07/27 10:39:32;;;;;;;6.37;1.70;;;19.20;99.90;;;;;;5009506;28;20811;-79
2023/07/27 10:42:03;;;;;;;4.27;1.97;;;19.30;99.90;;;;;;5015805;28;20580;-79
2023/07/27 10:44:42;;;;;;;2.40;1.63;;;19.40;99.90;;;;;;5016272;28;20580;-79
2023/07/27 10:47:10;;;;;;;2.93;2.23;;;19.40;99.90;;;;;;5033763;28;20627;-80
2023/07/27 10:49:39;;;;;;;3.50;2.33;;;19.50;99.90;;;;;;5033622;28;20635;-79
2023/07/27 10:52:06;;;;;;;2.67;1.67;;;19.60;99.90;;;;;;5033978;28;20557;-79
2023/07/27 10:54:36;;;;;;;2.40;1.43;;;19.60;99.90;;;;;;5034248;28;20572;-80
2023/07/27 10:57:05;;;;;;;2.10;1.70;;;19.70;99.90;;;;;;5016868;28;20587;-80
2023/07/27 10:59:35;;;;;;;2.10;1.30;;;19.80;99.90;;;;;;5015704;28;20711;-80
2023/07/27 11:02:01;;;;;;;2.17;1.23;;;19.90;99.90;;;;;;5020583;28;20643;-81
2023/07/27 11:04:28;;;;;;;1.70;1.20;;;19.90;99.90;;;;;;5016042;28;20983;-80
2023/07/27 11:06:54;;;;;;;1.97;1.00;;;20.00;99.90;;;;;;5016185;28;20591;-80
2023/07/27 11:09:21;;;;;;;1.90;1.13;;;20.10;99.90;;;;;;5015682;28;20620;-80
2023/07/27 11:11:51;;;;;;;3.67;0.80;;;20.20;99.90;;;;;;5033380;28;20200;-79
2023/07/27 11:14:16;;;;;;;1.70;0.77;;;20.30;99.90;;;;;;5015974;28;20598;-80
2023/07/27 11:16:42;;;;;;;2.50;0.70;;;20.40;99.90;;;;;;5015873;28;20584;-80
2023/07/27 11:19:09;;;;;;;1.67;0.70;;;20.40;99.90;;;;;;5033419;28;20198;-79
2023/07/27 11:21:40;;;;;;;1.57;0.70;;;20.40;99.90;;;;;;5016735;28;20588;-80
2023/07/27 11:24:07;;;;;;;1.77;0.63;;;20.50;99.90;;;;;;5016894;28;20627;-80
2023/07/27 11:26:33;;;;;;;3.10;0.70;;;20.60;99.90;;;;;;5017101;28;20624;-79
2023/07/27 11:29:00;;;;;;;2.63;0.80;;;20.60;99.90;;;;;;5015181;28;20659;-80
2023/07/27 11:31:27;;;;;;;2.30;0.90;;;20.70;99.90;;;;;;5014779;28;20564;-80
2023/07/27 11:34:00;;;;;;;1.83;0.60;;;20.80;99.90;;;;;;5032904;28;20696;-79
2023/07/27 11:36:30;;;;;;;1.67;0.70;;;20.90;99.90;;;;;;5031238;28;20639;-79
2023/07/27 11:38:57;;;;;;;1.30;0.70;;;21.00;99.90;;;;;;5001414;28;20623;-80
2023/07/27 11:41:27;;;;;;;4.07;1.13;;;21.00;99.90;;;;;;5015082;28;20576;-80
2023/07/27 11:43:55;;;;;;;1.30;0.70;;;21.10;99.90;;;;;;5017079;28;20599;-81
2023/07/27 11:46:21;;;;;;;1.43;0.70;;;21.20;99.90;;;;;;5044866;28;20624;-81
2023/07/27 11:48:49;;;;;;;1.40;0.70;;;21.20;99.90;;;;;;5045985;28;20623;-80
2023/07/27 11:51:15;;;;;;;1.50;0.70;;;21.30;99.90;;;;;;5027172;28;20580;-81
2023/07/27 11:53:44;;;;;;;1.30;0.70;;;21.30;99.90;;;;;;5029312;28;21118;-80
2023/07/27 11:56:11;;;;;;;1.40;0.70;;;21.40;99.90;;;;;;5030658;28;20584;-80
2023/07/27 11:58:37;;;;;;;2.07;0.93;;;21.40;99.90;;;;;;5026933;28;20591;-81
2023/07/27 12:01:04;;;;;;;1.40;0.63;;;21.50;99.90;;;;;;5025377;28;20671;-81
2023/07/27 12:03:34;;;;;;;2.43;0.70;;;21.50;99.90;;;;;;5026604;28;20592;-81
2023/07/27 12:06:02;;;;;;;3.20;2.00;;;21.60;99.90;;;;;;5039065;28;20577;-81
2023/07/27 12:08:29;;;;;;;4.43;2.50;;;21.60;99.90;;;;;;5041783;28;20629;-80
2023/07/27 12:11:01;;;;;;;4.70;2.33;;;21.60;99.90;;;;;;5021682;28;20631;-81
2023/07/27 12:13:27;;;;;;;5.20;3.67;;;21.60;99.90;;;;;;5037097;28;20893;-81
2023/07/27 12:15:58;;;;;;;4.00;3.00;;;21.60;99.90;;;;;;5020579;28;20584;-81
2023/07/27 12:18:26;;;;;;;3.63;2.27;;;21.60;99.90;;;;;;5016779;28;20584;-82
2023/07/27 12:20:54;;;;;;;2.03;1.17;;;21.60;99.90;;;;;;5033371;28;20592;-82
2023/07/27 12:23:20;;;;;;;2.27;1.20;;;21.60;99.90;;;;;;5020015;28;20577;-82
2023/07/27 12:25:47;;;;;;;1.70;0.80;;;21.60;99.90;;;;;;5023167;28;20585;-82
2023/07/27 12:28:13;;;;;;;1.80;0.70;;;21.70;99.90;;;;;;5024586;28;20631;-83
2023/07/27 12:30:39;;;;;;;1.40;0.60;;;21.60;99.90;;;;;;5039874;28;20603;-83
2023/07/27 12:33:04;;;;;;;1.30;0.70;;;21.70;99.90;;;;;;5021171;28;20603;-82
2023/07/27 12:35:30;;;;;;;2.07;0.77;;;21.60;99.90;;;;;;5021683;28;20585;-82
2023/07/27 12:37:58;;;;;;;1.77;1.00;;;21.60;99.90;;;;;;4992396;28;20190;-82
2023/07/27 12:40:24;;;;;;;3.20;2.00;;;21.60;99.90;;;;;;5007535;28;20421;-82
2023/07/27 12:42:51;;;;;;;5.10;3.63;;;21.60;99.90;;;;;;5033812;28;20595;-81
2023/07/27 12:45:19;;;;;;;4.17;2.70;;;21.60;99.90;;;;;;5016025;28;20585;-82
2023/07/27 12:47:45;;;;;;;5.40;4.67;;;21.70;99.90;;;;;;5038185;28;20682;-82
2023/07/27 12:50:13;;;;;;;7.30;5.30;;;21.80;99.90;;;;;;5017001;28;20659;-82